Pagrindinis puslapis
METAR-TAF:

METAR-TAF

Oro uostai :

Dniepropetrovskas, Ukraina

platuma: 48-21-26N, ilguma: 035-06-02E, Aukštis: 147 m

Dabartinis oras

Ataskaita buvo paskelbta 1 valandą ir 2 minutes, ne 06:00 UTC
Vėjas 8 kt iš Rytų, svyruoja nuo Rytų/Šiaurės Rytų ir Pietryčių
Temperatūra 22°C
Drėgmė 53%
Slėgis 1017 hPa
Matomumas 10 km arba daugiau
nėra debesų žemiau 1500 m ir nėra kamuolinių lietaus debesų

METAR: UKDD 070600Z 09004MPS 060V130 CAVOK 22/12 Q1017 R08/090070 NOSIG

Laikas: 10:02 (07:02 UTC)

Prognozė

Ataskaita buvo paskelbta 1 valandą ir 57 minutes, ne 05:05 UTC
Prognozė galioja nuo 07 metu 06 UTC su 08 metu 06 UTC
Vėjas 10 kt iš Rytų/Pietryčių su gūsio iki 19 kt
Matomumas 10 km arba daugiau
nėra debesų žemiau 1500 m ir nėra kamuolinių lietaus debesų

TAF: UKDD 070505Z 0706/0806 11005G10MPS CAVOK TX30/0712Z TN15/0802Z

Orai ataskaitas ir orų prognozės (METAR, TAF).

turimą stotys yra geltonos ir raudonos taškus žemėlapyje.

Perkelti pele per norėdami pamatyti stoties vardą.

Tada spustelėkite, norėdami matyti oro stebėjimo ir prognozės.

Norėdami pakeisti žemėlapį: spustelėkite ant žalios mygtukų su juodo kryžiaus žemyn,; žalią mygtuką su brūkšneliu, jei norite nutolinti; arba žalių rodyklių gretimoms žemėlapius.


METAR-TAF: